sensor_id;sensor_type;location;lat;lon;timestamp;temperature;humidity
64843;DHT22;51310;52.198;5.422;2023-05-10T00:00:21;13.30;91.20
64843;DHT22;51310;52.198;5.422;2023-05-10T00:02:49;13.30;91.20
64843;DHT22;51310;52.198;5.422;2023-05-10T00:05:15;13.30;91.10
64843;DHT22;51310;52.198;5.422;2023-05-10T00:07:40;13.30;91.10
64843;DHT22;51310;52.198;5.422;2023-05-10T00:10:10;13.30;91.10
64843;DHT22;51310;52.198;5.422;2023-05-10T00:12:36;13.30;90.90
64843;DHT22;51310;52.198;5.422;2023-05-10T00:15:02;13.20;90.90
64843;DHT22;51310;52.198;5.422;2023-05-10T00:17:29;13.20;91.00
64843;DHT22;51310;52.198;5.422;2023-05-10T00:19:54;13.10;91.10
64843;DHT22;51310;52.198;5.422;2023-05-10T00:22:20;13.20;91.10
64843;DHT22;51310;52.198;5.422;2023-05-10T00:24:46;13.10;91.20
64843;DHT22;51310;52.198;5.422;2023-05-10T00:27:12;13.10;91.20
64843;DHT22;51310;52.198;5.422;2023-05-10T00:29:37;13.10;91.30
64843;DHT22;51310;52.198;5.422;2023-05-10T00:32:03;13.10;91.40
64843;DHT22;51310;52.198;5.422;2023-05-10T00:34:29;13.10;91.40
64843;DHT22;51310;52.198;5.422;2023-05-10T00:36:55;13.10;91.50
64843;DHT22;51310;52.198;5.422;2023-05-10T00:39:21;13.10;91.40
64843;DHT22;51310;52.198;5.422;2023-05-10T00:41:47;13.10;91.40
64843;DHT22;51310;52.198;5.422;2023-05-10T00:44:12;13.10;91.40
64843;DHT22;51310;52.198;5.422;2023-05-10T00:46:38;13.10;91.40
64843;DHT22;51310;52.198;5.422;2023-05-10T00:49:04;13.10;91.30
64843;DHT22;51310;52.198;5.422;2023-05-10T00:51:31;13.20;91.20
64843;DHT22;51310;52.198;5.422;2023-05-10T00:53:57;13.10;91.30
64843;DHT22;51310;52.198;5.422;2023-05-10T00:56:24;13.10;91.40
64843;DHT22;51310;52.198;5.422;2023-05-10T00:58:50;13.10;91.30
64843;DHT22;51310;52.198;5.422;2023-05-10T01:01:16;13.10;91.30
64843;DHT22;51310;52.198;5.422;2023-05-10T01:03:43;13.10;91.40
64843;DHT22;51310;52.198;5.422;2023-05-10T01:06:09;13.10;91.50
64843;DHT22;51310;52.198;5.422;2023-05-10T01:08:35;13.20;91.60
64843;DHT22;51310;52.198;5.422;2023-05-10T01:11:02;13.20;91.60
64843;DHT22;51310;52.198;5.422;2023-05-10T01:15:59;13.10;91.60
64843;DHT22;51310;52.198;5.422;2023-05-10T01:18:29;13.10;91.70
64843;DHT22;51310;52.198;5.422;2023-05-10T01:30:35;13.10;91.40
64843;DHT22;51310;52.198;5.422;2023-05-10T01:33:27;13.00;91.60
64843;DHT22;51310;52.198;5.422;2023-05-10T01:39:01;12.90;92.10
64843;DHT22;51310;52.198;5.422;2023-05-10T01:41:49;12.90;92.30
64843;DHT22;51310;52.198;5.422;2023-05-10T01:44:29;12.90;92.40
64843;DHT22;51310;52.198;5.422;2023-05-10T01:47:42;12.90;92.20
64843;DHT22;51310;52.198;5.422;2023-05-10T01:50:18;13.00;92.10
64843;DHT22;51310;52.198;5.422;2023-05-10T01:52:51;12.90;92.30
64843;DHT22;51310;52.198;5.422;2023-05-10T01:55:26;12.90;92.40
64843;DHT22;51310;52.198;5.422;2023-05-10T01:58:08;13.00;92.30
64843;DHT22;51310;52.198;5.422;2023-05-10T02:00:44;13.00;92.40
64843;DHT22;51310;52.198;5.422;2023-05-10T02:03:13;13.00;92.30
64843;DHT22;51310;52.198;5.422;2023-05-10T02:05:41;13.00;92.50
64843;DHT22;51310;52.198;5.422;2023-05-10T02:08:11;13.00;92.30
64843;DHT22;51310;52.198;5.422;2023-05-10T02:10:40;13.00;92.20
64843;DHT22;51310;52.198;5.422;2023-05-10T02:13:07;13.00;92.20
64843;DHT22;51310;52.198;5.422;2023-05-10T02:15:36;13.00;92.10
64843;DHT22;51310;52.198;5.422;2023-05-10T02:18:04;13.00;91.80
64843;DHT22;51310;52.198;5.422;2023-05-10T02:20:32;13.00;91.80
64843;DHT22;51310;52.198;5.422;2023-05-10T02:22:58;13.00;91.90
64843;DHT22;51310;52.198;5.422;2023-05-10T02:25:25;13.00;91.90
64843;DHT22;51310;52.198;5.422;2023-05-10T02:27:55;13.00;91.90
64843;DHT22;51310;52.198;5.422;2023-05-10T02:30:22;12.90;92.00
64843;DHT22;51310;52.198;5.422;2023-05-10T02:32:51;13.00;92.10
64843;DHT22;51310;52.198;5.422;2023-05-10T02:35:17;12.90;92.30
64843;DHT22;51310;52.198;5.422;2023-05-10T02:37:44;12.90;92.50
64843;DHT22;51310;52.198;5.422;2023-05-10T02:40:13;12.90;92.50
64843;DHT22;51310;52.198;5.422;2023-05-10T02:42:42;13.00;92.20
64843;DHT22;51310;52.198;5.422;2023-05-10T02:45:17;12.90;92.30
64843;DHT22;51310;52.198;5.422;2023-05-10T02:47:46;13.00;92.00
64843;DHT22;51310;52.198;5.422;2023-05-10T02:50:12;12.90;92.10
64843;DHT22;51310;52.198;5.422;2023-05-10T02:52:50;12.90;92.00
64843;DHT22;51310;52.198;5.422;2023-05-10T02:55:23;13.00;92.00
64843;DHT22;51310;52.198;5.422;2023-05-10T02:57:56;12.90;92.00
64843;DHT22;51310;52.198;5.422;2023-05-10T03:00:25;12.90;92.20
64843;DHT22;51310;52.198;5.422;2023-05-10T03:02:51;12.90;91.90
64843;DHT22;51310;52.198;5.422;2023-05-10T03:05:17;12.90;91.80
64843;DHT22;51310;52.198;5.422;2023-05-10T03:07:43;12.80;92.00
64843;DHT22;51310;52.198;5.422;2023-05-10T03:10:10;12.80;91.80
64843;DHT22;51310;52.198;5.422;2023-05-10T03:19:12;12.50;92.20
64843;DHT22;51310;52.198;5.422;2023-05-10T03:21:47;12.50;92.60
64843;DHT22;51310;52.198;5.422;2023-05-10T03:24:20;12.40;92.80
64843;DHT22;51310;52.198;5.422;2023-05-10T03:26:49;12.40;93.00
64843;DHT22;51310;52.198;5.422;2023-05-10T03:29:17;12.40;93.00
64843;DHT22;51310;52.198;5.422;2023-05-10T03:31:43;12.50;92.80
64843;DHT22;51310;52.198;5.422;2023-05-10T03:34:09;12.40;92.90
64843;DHT22;51310;52.198;5.422;2023-05-10T03:36:35;12.40;92.90
64843;DHT22;51310;52.198;5.422;2023-05-10T03:39:01;12.40;93.00
64843;DHT22;51310;52.198;5.422;2023-05-10T03:41:27;12.40;93.30
64843;DHT22;51310;52.198;5.422;2023-05-10T03:43:53;12.50;93.00
64843;DHT22;51310;52.198;5.422;2023-05-10T03:46:19;12.40;93.00
64843;DHT22;51310;52.198;5.422;2023-05-10T03:48:44;12.40;92.90
64843;DHT22;51310;52.198;5.422;2023-05-10T03:51:10;12.30;93.10
64843;DHT22;51310;52.198;5.422;2023-05-10T03:53:36;12.30;93.00
64843;DHT22;51310;52.198;5.422;2023-05-10T03:56:01;12.30;93.40
64843;DHT22;51310;52.198;5.422;2023-05-10T03:58:27;12.30;93.70
64843;DHT22;51310;52.198;5.422;2023-05-10T04:00:53;12.30;93.40
64843;DHT22;51310;52.198;5.422;2023-05-10T04:03:18;12.40;93.40
64843;DHT22;51310;52.198;5.422;2023-05-10T04:05:45;12.40;93.20
64843;DHT22;51310;52.198;5.422;2023-05-10T04:08:11;12.40;93.20
64843;DHT22;51310;52.198;5.422;2023-05-10T04:10:36;12.40;93.30
64843;DHT22;51310;52.198;5.422;2023-05-10T04:13:02;12.50;93.20
64843;DHT22;51310;52.198;5.422;2023-05-10T04:15:28;12.50;93.00
64843;DHT22;51310;52.198;5.422;2023-05-10T04:17:53;12.50;92.90
64843;DHT22;51310;52.198;5.422;2023-05-10T04:20:19;12.40;93.00
64843;DHT22;51310;52.198;5.422;2023-05-10T04:22:45;12.40;93.40
64843;DHT22;51310;52.198;5.422;2023-05-10T04:25:10;12.50;93.10
64843;DHT22;51310;52.198;5.422;2023-05-10T04:27:36;12.50;93.00
64843;DHT22;51310;52.198;5.422;2023-05-10T04:30:02;12.40;93.20
64843;DHT22;51310;52.198;5.422;2023-05-10T04:32:28;12.40;93.40
64843;DHT22;51310;52.198;5.422;2023-05-10T04:34:54;12.40;93.40
64843;DHT22;51310;52.198;5.422;2023-05-10T04:37:20;12.40;93.30
64843;DHT22;51310;52.198;5.422;2023-05-10T04:39:46;12.30;93.40
64843;DHT22;51310;52.198;5.422;2023-05-10T04:42:12;12.30;93.20
64843;DHT22;51310;52.198;5.422;2023-05-10T04:44:40;12.30;93.40
64843;DHT22;51310;52.198;5.422;2023-05-10T04:47:06;12.30;93.20
64843;DHT22;51310;52.198;5.422;2023-05-10T04:49:32;12.30;93.10
64843;DHT22;51310;52.198;5.422;2023-05-10T04:51:57;12.30;93.00
64843;DHT22;51310;52.198;5.422;2023-05-10T04:54:23;12.40;92.80
64843;DHT22;51310;52.198;5.422;2023-05-10T04:56:49;12.40;92.80
64843;DHT22;51310;52.198;5.422;2023-05-10T04:59:15;12.40;92.20
64843;DHT22;51310;52.198;5.422;2023-05-10T05:01:41;12.30;92.50
64843;DHT22;51310;52.198;5.422;2023-05-10T05:04:06;12.30;93.20
64843;DHT22;51310;52.198;5.422;2023-05-10T05:06:32;12.30;92.90
64843;DHT22;51310;52.198;5.422;2023-05-10T05:08:58;12.30;93.00
64843;DHT22;51310;52.198;5.422;2023-05-10T05:11:23;12.40;92.80
64843;DHT22;51310;52.198;5.422;2023-05-10T05:13:50;12.40;92.60
64843;DHT22;51310;52.198;5.422;2023-05-10T05:16:16;12.30;92.90
64843;DHT22;51310;52.198;5.422;2023-05-10T05:18:42;12.30;93.20
64843;DHT22;51310;52.198;5.422;2023-05-10T05:21:15;12.30;93.30
64843;DHT22;51310;52.198;5.422;2023-05-10T05:23:41;12.40;92.90
64843;DHT22;51310;52.198;5.422;2023-05-10T05:26:07;12.40;93.00
64843;DHT22;51310;52.198;5.422;2023-05-10T05:28:33;12.50;92.80
64843;DHT22;51310;52.198;5.422;2023-05-10T05:31:05;12.40;92.60
64843;DHT22;51310;52.198;5.422;2023-05-10T05:33:33;12.40;92.70
64843;DHT22;51310;52.198;5.422;2023-05-10T05:36:03;12.50;92.60
64843;DHT22;51310;52.198;5.422;2023-05-10T05:38:30;12.50;92.60
64843;DHT22;51310;52.198;5.422;2023-05-10T05:40:56;12.50;92.40
64843;DHT22;51310;52.198;5.422;2023-05-10T05:43:22;12.50;92.10
64843;DHT22;51310;52.198;5.422;2023-05-10T05:45:48;12.50;91.30
64843;DHT22;51310;52.198;5.422;2023-05-10T05:48:14;12.50;91.30
64843;DHT22;51310;52.198;5.422;2023-05-10T05:50:39;12.50;91.50
64843;DHT22;51310;52.198;5.422;2023-05-10T05:53:05;12.50;91.50
64843;DHT22;51310;52.198;5.422;2023-05-10T05:55:31;12.50;91.30
64843;DHT22;51310;52.198;5.422;2023-05-10T05:57:57;12.40;91.50
64843;DHT22;51310;52.198;5.422;2023-05-10T06:00:23;12.40;91.60
64843;DHT22;51310;52.198;5.422;2023-05-10T06:02:49;12.30;91.90
64843;DHT22;51310;52.198;5.422;2023-05-10T06:05:15;12.30;91.70
64843;DHT22;51310;52.198;5.422;2023-05-10T06:07:41;12.20;92.20
64843;DHT22;51310;52.198;5.422;2023-05-10T06:10:09;12.20;92.40
64843;DHT22;51310;52.198;5.422;2023-05-10T06:12:35;12.10;93.00
64843;DHT22;51310;52.198;5.422;2023-05-10T06:15:01;12.00;93.10
64843;DHT22;51310;52.198;5.422;2023-05-10T06:17:27;12.00;93.30
64843;DHT22;51310;52.198;5.422;2023-05-10T06:19:54;11.90;93.00
64843;DHT22;51310;52.198;5.422;2023-05-10T06:22:20;11.90;93.30
64843;DHT22;51310;52.198;5.422;2023-05-10T06:24:48;11.90;93.40
64843;DHT22;51310;52.198;5.422;2023-05-10T06:27:14;12.00;93.00
64843;DHT22;51310;52.198;5.422;2023-05-10T06:29:39;12.00;92.30
64843;DHT22;51310;52.198;5.422;2023-05-10T06:32:05;12.10;92.00
64843;DHT22;51310;52.198;5.422;2023-05-10T06:34:31;12.10;91.40
64843;DHT22;51310;52.198;5.422;2023-05-10T06:36:57;12.20;91.70
64843;DHT22;51310;52.198;5.422;2023-05-10T06:39:22;12.20;90.80
64843;DHT22;51310;52.198;5.422;2023-05-10T06:41:48;12.30;90.90
64843;DHT22;51310;52.198;5.422;2023-05-10T06:44:14;12.30;90.60
64843;DHT22;51310;52.198;5.422;2023-05-10T06:46:39;12.40;90.00
64843;DHT22;51310;52.198;5.422;2023-05-10T06:49:06;12.40;90.10
64843;DHT22;51310;52.198;5.422;2023-05-10T06:51:32;12.50;89.70
64843;DHT22;51310;52.198;5.422;2023-05-10T06:53:58;12.50;89.90
64843;DHT22;51310;52.198;5.422;2023-05-10T06:56:23;12.50;89.40
64843;DHT22;51310;52.198;5.422;2023-05-10T06:58:49;12.50;89.60
64843;DHT22;51310;52.198;5.422;2023-05-10T07:01:15;12.60;89.50
64843;DHT22;51310;52.198;5.422;2023-05-10T07:03:40;12.60;88.80
64843;DHT22;51310;52.198;5.422;2023-05-10T07:06:06;12.60;88.40
64843;DHT22;51310;52.198;5.422;2023-05-10T07:08:33;12.60;88.60
64843;DHT22;51310;52.198;5.422;2023-05-10T07:11:06;12.60;88.70
64843;DHT22;51310;52.198;5.422;2023-05-10T07:13:38;12.60;89.30
64843;DHT22;51310;52.198;5.422;2023-05-10T07:16:06;12.70;88.40
64843;DHT22;51310;52.198;5.422;2023-05-10T07:18:33;12.70;88.10
64843;DHT22;51310;52.198;5.422;2023-05-10T07:20:58;12.70;88.40
64843;DHT22;51310;52.198;5.422;2023-05-10T07:23:24;12.70;88.00
64843;DHT22;51310;52.198;5.422;2023-05-10T07:25:51;12.60;88.30
64843;DHT22;51310;52.198;5.422;2023-05-10T07:28:17;12.60;88.60
64843;DHT22;51310;52.198;5.422;2023-05-10T07:30:44;12.60;88.60
64843;DHT22;51310;52.198;5.422;2023-05-10T07:33:11;12.70;88.00
64843;DHT22;51310;52.198;5.422;2023-05-10T07:35:38;12.70;87.80
64843;DHT22;51310;52.198;5.422;2023-05-10T07:38:03;12.80;87.70
64843;DHT22;51310;52.198;5.422;2023-05-10T07:40:29;12.80;87.90
64843;DHT22;51310;52.198;5.422;2023-05-10T07:42:55;12.80;87.30
64843;DHT22;51310;52.198;5.422;2023-05-10T07:45:21;12.90;86.30
64843;DHT22;51310;52.198;5.422;2023-05-10T07:47:48;13.00;84.80
64843;DHT22;51310;52.198;5.422;2023-05-10T07:50:14;12.90;85.20
64843;DHT22;51310;52.198;5.422;2023-05-10T07:52:40;13.00;85.90
64843;DHT22;51310;52.198;5.422;2023-05-10T07:55:06;13.00;86.20
64843;DHT22;51310;52.198;5.422;2023-05-10T07:57:34;13.10;85.00
64843;DHT22;51310;52.198;5.422;2023-05-10T08:00:00;13.10;84.70
64843;DHT22;51310;52.198;5.422;2023-05-10T08:02:26;13.20;85.50
64843;DHT22;51310;52.198;5.422;2023-05-10T08:04:51;13.20;85.20
64843;DHT22;51310;52.198;5.422;2023-05-10T08:07:18;13.30;84.00
64843;DHT22;51310;52.198;5.422;2023-05-10T08:09:43;13.20;84.40
64843;DHT22;51310;52.198;5.422;2023-05-10T08:12:09;13.20;84.30
64843;DHT22;51310;52.198;5.422;2023-05-10T08:14:35;13.30;84.00
64843;DHT22;51310;52.198;5.422;2023-05-10T08:17:04;13.10;82.70
64843;DHT22;51310;52.198;5.422;2023-05-10T08:19:29;13.00;83.10
64843;DHT22;51310;52.198;5.422;2023-05-10T08:21:55;12.90;83.70
64843;DHT22;51310;52.198;5.422;2023-05-10T08:24:22;12.70;84.10
64843;DHT22;51310;52.198;5.422;2023-05-10T08:26:48;12.50;85.20
64843;DHT22;51310;52.198;5.422;2023-05-10T08:29:14;12.50;85.80
64843;DHT22;51310;52.198;5.422;2023-05-10T08:31:40;12.50;86.60
64843;DHT22;51310;52.198;5.422;2023-05-10T08:34:06;12.50;86.40
64843;DHT22;51310;52.198;5.422;2023-05-10T08:36:32;12.60;86.20
64843;DHT22;51310;52.198;5.422;2023-05-10T08:38:58;12.70;85.90
64843;DHT22;51310;52.198;5.422;2023-05-10T08:41:24;12.70;85.10
64843;DHT22;51310;52.198;5.422;2023-05-10T08:43:51;12.70;84.90
64843;DHT22;51310;52.198;5.422;2023-05-10T08:46:20;12.80;85.30
64843;DHT22;51310;52.198;5.422;2023-05-10T08:48:48;12.80;85.80
64843;DHT22;51310;52.198;5.422;2023-05-10T08:51:18;12.80;85.60
64843;DHT22;51310;52.198;5.422;2023-05-10T08:53:45;12.90;86.10
64843;DHT22;51310;52.198;5.422;2023-05-10T08:56:11;13.10;85.80
64843;DHT22;51310;52.198;5.422;2023-05-10T08:58:38;13.20;84.00
64843;DHT22;51310;52.198;5.422;2023-05-10T09:01:05;13.30;83.40
64843;DHT22;51310;52.198;5.422;2023-05-10T09:03:31;13.50;82.40
64843;DHT22;51310;52.198;5.422;2023-05-10T09:05:58;13.50;81.90
64843;DHT22;51310;52.198;5.422;2023-05-10T09:08:24;13.50;81.90
64843;DHT22;51310;52.198;5.422;2023-05-10T09:10:51;13.60;82.20
64843;DHT22;51310;52.198;5.422;2023-05-10T09:13:18;13.60;81.50
64843;DHT22;51310;52.198;5.422;2023-05-10T09:15:45;13.90;79.50
64843;DHT22;51310;52.198;5.422;2023-05-10T09:18:12;13.90;80.40
64843;DHT22;51310;52.198;5.422;2023-05-10T09:20:38;14.10;80.40
64843;DHT22;51310;52.198;5.422;2023-05-10T09:23:04;14.20;81.60
64843;DHT22;51310;52.198;5.422;2023-05-10T09:25:31;14.40;79.60
64843;DHT22;51310;52.198;5.422;2023-05-10T09:27:59;14.70;78.20
64843;DHT22;51310;52.198;5.422;2023-05-10T09:32:59;15.20;74.40
64843;DHT22;51310;52.198;5.422;2023-05-10T09:35:27;15.20;74.00
64843;DHT22;51310;52.198;5.422;2023-05-10T09:37:56;15.30;73.90
64843;DHT22;51310;52.198;5.422;2023-05-10T09:40:25;15.40;75.50
64843;DHT22;51310;52.198;5.422;2023-05-10T09:45:22;15.50;72.20
64843;DHT22;51310;52.198;5.422;2023-05-10T09:47:49;15.60;70.60
64843;DHT22;51310;52.198;5.422;2023-05-10T09:50:15;15.60;70.70
64843;DHT22;51310;52.198;5.422;2023-05-10T09:52:58;15.50;69.70
64843;DHT22;51310;52.198;5.422;2023-05-10T09:55:39;15.50;71.00
64843;DHT22;51310;52.198;5.422;2023-05-10T09:58:13;15.50;70.40
64843;DHT22;51310;52.198;5.422;2023-05-10T10:00:41;15.60;72.20
64843;DHT22;51310;52.198;5.422;2023-05-10T10:03:21;15.60;71.10
64843;DHT22;51310;52.198;5.422;2023-05-10T10:05:48;15.60;70.90
64843;DHT22;51310;52.198;5.422;2023-05-10T10:08:15;15.60;71.90
64843;DHT22;51310;52.198;5.422;2023-05-10T10:10:42;15.60;71.90
64843;DHT22;51310;52.198;5.422;2023-05-10T10:13:10;15.60;72.70
64843;DHT22;51310;52.198;5.422;2023-05-10T10:15:36;15.60;71.80
64843;DHT22;51310;52.198;5.422;2023-05-10T10:18:02;15.60;71.20
64843;DHT22;51310;52.198;5.422;2023-05-10T10:20:31;15.70;71.70
64843;DHT22;51310;52.198;5.422;2023-05-10T10:22:57;15.60;72.70
64843;DHT22;51310;52.198;5.422;2023-05-10T10:25:25;15.80;73.00
64843;DHT22;51310;52.198;5.422;2023-05-10T10:30:41;16.00;71.60
64843;DHT22;51310;52.198;5.422;2023-05-10T10:35:49;16.50;67.60
64843;DHT22;51310;52.198;5.422;2023-05-10T10:38:17;16.50;66.80
64843;DHT22;51310;52.198;5.422;2023-05-10T10:40:43;16.40;68.20
64843;DHT22;51310;52.198;5.422;2023-05-10T10:43:28;16.40;66.60
64843;DHT22;51310;52.198;5.422;2023-05-10T10:46:16;16.10;67.30
64843;DHT22;51310;52.198;5.422;2023-05-10T10:48:50;16.00;68.70
64843;DHT22;51310;52.198;5.422;2023-05-10T10:51:37;15.80;71.10
64843;DHT22;51310;52.198;5.422;2023-05-10T10:54:12;15.80;72.10
64843;DHT22;51310;52.198;5.422;2023-05-10T10:56:38;15.80;72.90
64843;DHT22;51310;52.198;5.422;2023-05-10T10:59:04;15.90;72.70
64843;DHT22;51310;52.198;5.422;2023-05-10T11:01:33;16.00;72.80
64843;DHT22;51310;52.198;5.422;2023-05-10T11:06:32;16.10;73.20
64843;DHT22;51310;52.198;5.422;2023-05-10T11:09:05;16.20;71.30
64843;DHT22;51310;52.198;5.422;2023-05-10T11:11:36;16.30;71.40
64843;DHT22;51310;52.198;5.422;2023-05-10T11:14:13;16.40;72.00
64843;DHT22;51310;52.198;5.422;2023-05-10T11:16:43;16.40;70.70
64843;DHT22;51310;52.198;5.422;2023-05-10T11:19:16;16.30;70.50
64843;DHT22;51310;52.198;5.422;2023-05-10T11:21:51;16.20;70.30
64843;DHT22;51310;52.198;5.422;2023-05-10T11:24:40;16.30;68.60
64843;DHT22;51310;52.198;5.422;2023-05-10T11:27:21;16.20;69.30
64843;DHT22;51310;52.198;5.422;2023-05-10T11:29:51;16.20;68.40
64843;DHT22;51310;52.198;5.422;2023-05-10T11:32:19;16.20;69.70
64843;DHT22;51310;52.198;5.422;2023-05-10T11:34:47;16.20;71.20
64843;DHT22;51310;52.198;5.422;2023-05-10T11:37:17;16.20;71.50
64843;DHT22;51310;52.198;5.422;2023-05-10T11:39:45;16.20;71.70
64843;DHT22;51310;52.198;5.422;2023-05-10T11:42:14;16.30;72.30
64843;DHT22;51310;52.198;5.422;2023-05-10T11:44:40;16.40;72.10
64843;DHT22;51310;52.198;5.422;2023-05-10T11:47:07;16.40;71.50
64843;DHT22;51310;52.198;5.422;2023-05-10T11:49:32;16.60;70.10
64843;DHT22;51310;52.198;5.422;2023-05-10T11:52:08;16.70;71.10
64843;DHT22;51310;52.198;5.422;2023-05-10T11:54:36;16.90;70.40
64843;DHT22;51310;52.198;5.422;2023-05-10T11:57:02;16.90;69.20
64843;DHT22;51310;52.198;5.422;2023-05-10T11:59:28;16.90;69.40
64843;DHT22;51310;52.198;5.422;2023-05-10T12:01:54;16.80;70.10
64843;DHT22;51310;52.198;5.422;2023-05-10T12:04:20;16.80;70.00
64843;DHT22;51310;52.198;5.422;2023-05-10T12:06:47;16.90;70.10
64843;DHT22;51310;52.198;5.422;2023-05-10T12:09:13;16.70;68.50
64843;DHT22;51310;52.198;5.422;2023-05-10T12:11:40;16.50;69.60
64843;DHT22;51310;52.198;5.422;2023-05-10T12:14:07;16.50;69.30
64843;DHT22;51310;52.198;5.422;2023-05-10T12:16:34;16.40;68.70
64843;DHT22;51310;52.198;5.422;2023-05-10T12:19:01;16.10;69.70
64843;DHT22;51310;52.198;5.422;2023-05-10T12:21:28;16.00;71.60
64843;DHT22;51310;52.198;5.422;2023-05-10T12:24:01;16.00;71.70
64843;DHT22;51310;52.198;5.422;2023-05-10T12:26:28;16.10;70.30
64843;DHT22;51310;52.198;5.422;2023-05-10T12:28:55;16.30;70.30
64843;DHT22;51310;52.198;5.422;2023-05-10T12:31:58;16.40;69.30
64843;DHT22;51310;52.198;5.422;2023-05-10T12:34:34;16.60;69.50
64843;DHT22;51310;52.198;5.422;2023-05-10T12:37:02;16.70;68.20
64843;DHT22;51310;52.198;5.422;2023-05-10T12:39:42;16.70;66.80
64843;DHT22;51310;52.198;5.422;2023-05-10T12:42:10;16.60;67.20
64843;DHT22;51310;52.198;5.422;2023-05-10T12:44:36;16.50;68.40
64843;DHT22;51310;52.198;5.422;2023-05-10T12:47:01;16.60;68.70
64843;DHT22;51310;52.198;5.422;2023-05-10T12:49:27;16.60;69.30
64843;DHT22;51310;52.198;5.422;2023-05-10T12:51:53;16.70;69.30
64843;DHT22;51310;52.198;5.422;2023-05-10T12:54:19;16.90;69.30
64843;DHT22;51310;52.198;5.422;2023-05-10T12:56:44;17.00;67.90
64843;DHT22;51310;52.198;5.422;2023-05-10T12:59:10;17.20;66.00
64843;DHT22;51310;52.198;5.422;2023-05-10T13:01:36;17.20;66.30
64843;DHT22;51310;52.198;5.422;2023-05-10T13:04:01;17.20;66.30
64843;DHT22;51310;52.198;5.422;2023-05-10T13:06:27;17.30;63.90
64843;DHT22;51310;52.198;5.422;2023-05-10T13:08:53;17.30;65.50
64843;DHT22;51310;52.198;5.422;2023-05-10T13:11:18;17.40;64.80
64843;DHT22;51310;52.198;5.422;2023-05-10T13:13:45;17.50;65.80
64843;DHT22;51310;52.198;5.422;2023-05-10T13:16:10;17.50;64.30
64843;DHT22;51310;52.198;5.422;2023-05-10T13:18:36;17.40;63.90
64843;DHT22;51310;52.198;5.422;2023-05-10T13:21:02;17.20;65.00
64843;DHT22;51310;52.198;5.422;2023-05-10T13:23:30;17.00;65.40
64843;DHT22;51310;52.198;5.422;2023-05-10T13:25:56;16.80;65.90
64843;DHT22;51310;52.198;5.422;2023-05-10T13:28:21;16.60;66.80
64843;DHT22;51310;52.198;5.422;2023-05-10T13:30:47;16.50;67.10
64843;DHT22;51310;52.198;5.422;2023-05-10T13:33:13;16.50;67.60
64843;DHT22;51310;52.198;5.422;2023-05-10T13:35:39;16.50;67.30
64843;DHT22;51310;52.198;5.422;2023-05-10T13:38:04;16.50;67.70
64843;DHT22;51310;52.198;5.422;2023-05-10T13:40:33;16.50;68.00
64843;DHT22;51310;52.198;5.422;2023-05-10T13:42:59;16.40;69.10
64843;DHT22;51310;52.198;5.422;2023-05-10T13:45:25;16.30;70.20
64843;DHT22;51310;52.198;5.422;2023-05-10T13:47:50;16.10;71.60
64843;DHT22;51310;52.198;5.422;2023-05-10T13:50:17;15.80;72.30
64843;DHT22;51310;52.198;5.422;2023-05-10T13:52:43;15.60;73.00
64843;DHT22;51310;52.198;5.422;2023-05-10T13:55:09;15.50;73.80
64843;DHT22;51310;52.198;5.422;2023-05-10T13:57:37;15.30;74.70
64843;DHT22;51310;52.198;5.422;2023-05-10T14:00:03;15.20;75.80
64843;DHT22;51310;52.198;5.422;2023-05-10T14:02:30;15.20;75.90
64843;DHT22;51310;52.198;5.422;2023-05-10T14:04:55;15.00;76.50
64843;DHT22;51310;52.198;5.422;2023-05-10T14:07:21;15.00;77.50
64843;DHT22;51310;52.198;5.422;2023-05-10T14:09:47;15.00;77.50
64843;DHT22;51310;52.198;5.422;2023-05-10T14:12:13;15.10;77.40
64843;DHT22;51310;52.198;5.422;2023-05-10T14:14:39;15.00;77.20
64843;DHT22;51310;52.198;5.422;2023-05-10T14:17:05;15.00;77.60
64843;DHT22;51310;52.198;5.422;2023-05-10T14:19:31;15.00;78.00
64843;DHT22;51310;52.198;5.422;2023-05-10T14:21:59;15.00;77.90
64843;DHT22;51310;52.198;5.422;2023-05-10T14:24:25;14.90;78.00
64843;DHT22;51310;52.198;5.422;2023-05-10T14:26:50;14.90;78.20
64843;DHT22;51310;52.198;5.422;2023-05-10T14:29:19;14.70;79.10
64843;DHT22;51310;52.198;5.422;2023-05-10T14:31:45;14.70;79.70
64843;DHT22;51310;52.198;5.422;2023-05-10T14:34:11;14.70;79.70
64843;DHT22;51310;52.198;5.422;2023-05-10T14:36:37;14.70;80.00
64843;DHT22;51310;52.198;5.422;2023-05-10T14:39:02;14.70;80.20
64843;DHT22;51310;52.198;5.422;2023-05-10T14:41:29;14.70;80.40
64843;DHT22;51310;52.198;5.422;2023-05-10T14:43:55;14.80;80.60
64843;DHT22;51310;52.198;5.422;2023-05-10T14:46:21;14.70;80.50
64843;DHT22;51310;52.198;5.422;2023-05-10T14:48:46;14.80;81.10
64843;DHT22;51310;52.198;5.422;2023-05-10T14:51:12;14.80;81.20
64843;DHT22;51310;52.198;5.422;2023-05-10T14:53:38;14.70;81.80
64843;DHT22;51310;52.198;5.422;2023-05-10T14:56:04;14.70;82.50
64843;DHT22;51310;52.198;5.422;2023-05-10T14:58:30;14.70;82.90
64843;DHT22;51310;52.198;5.422;2023-05-10T15:00:56;14.70;83.00
64843;DHT22;51310;52.198;5.422;2023-05-10T15:03:22;14.70;83.20
64843;DHT22;51310;52.198;5.422;2023-05-10T15:05:48;14.80;83.30
64843;DHT22;51310;52.198;5.422;2023-05-10T15:08:13;14.90;83.40
64843;DHT22;51310;52.198;5.422;2023-05-10T15:10:39;15.00;83.10
64843;DHT22;51310;52.198;5.422;2023-05-10T15:13:05;15.00;83.20
64843;DHT22;51310;52.198;5.422;2023-05-10T15:15:31;15.00;83.90
64843;DHT22;51310;52.198;5.422;2023-05-10T15:17:56;15.00;83.80
64843;DHT22;51310;52.198;5.422;2023-05-10T15:20:22;15.10;83.40
64843;DHT22;51310;52.198;5.422;2023-05-10T15:22:48;15.20;83.00
64843;DHT22;51310;52.198;5.422;2023-05-10T15:25:13;15.20;83.10
64843;DHT22;51310;52.198;5.422;2023-05-10T15:27:41;15.00;83.30
64843;DHT22;51310;52.198;5.422;2023-05-10T15:30:09;15.00;83.80
64843;DHT22;51310;52.198;5.422;2023-05-10T15:32:35;15.10;83.20
64843;DHT22;51310;52.198;5.422;2023-05-10T15:35:02;15.10;83.20
64843;DHT22;51310;52.198;5.422;2023-05-10T15:37:28;15.20;81.40
64843;DHT22;51310;52.198;5.422;2023-05-10T15:39:54;15.30;81.10
64843;DHT22;51310;52.198;5.422;2023-05-10T15:42:26;15.30;81.20
64843;DHT22;51310;52.198;5.422;2023-05-10T15:44:52;15.40;81.70
64843;DHT22;51310;52.198;5.422;2023-05-10T15:47:17;15.50;80.90
64843;DHT22;51310;52.198;5.422;2023-05-10T15:49:43;15.60;80.10
64843;DHT22;51310;52.198;5.422;2023-05-10T15:52:09;15.70;79.10
64843;DHT22;51310;52.198;5.422;2023-05-10T15:54:34;15.80;78.70
64843;DHT22;51310;52.198;5.422;2023-05-10T15:57:00;15.80;77.70
64843;DHT22;51310;52.198;5.422;2023-05-10T15:59:26;15.80;77.10
64843;DHT22;51310;52.198;5.422;2023-05-10T16:01:51;15.80;77.70
64843;DHT22;51310;52.198;5.422;2023-05-10T16:04:17;15.80;77.60
64843;DHT22;51310;52.198;5.422;2023-05-10T16:06:43;15.80;76.80